Pleasant Hill, Ohio
Current Conditions -  °F | °C
As of 3:56 AM on Friday 24 Oct 2014 (Local Time) from KDAY Reporting Station
Overcast Overcast  
Wind Chill: 44°   Ceiling: 22000
Heat Index: 44°   Visibility: 7mi
Dew Point: 39°   Wind: 0mph
Humidity: 82%   Direction: NA
Pressure: 30.11"   Gusts: NA
Location:  40.05°N, 84.34°W
Report Text: KDAY 240756Z 00000KT 7SM OVC220 07/04 A3011 RMK AO2 SLP198 T00670039
Loading
Personal Weather Stations






























Interactive Weather Map
Tropical Storm Tracking
New forecast layout! Learn more

10-Day Weather Forecast

Advertisements
Track Severe Weather on mobile